createdAt,value
2024-02-13T00:01:30.622Z,14.65
2024-02-13T00:03:58.737Z,15.25
2024-02-13T00:06:26.934Z,15.80
2024-02-13T00:08:53.680Z,15.13
2024-02-13T00:11:21.537Z,13.73
2024-02-13T00:13:48.305Z,11.27
2024-02-13T00:16:19.433Z,14.63
2024-02-13T00:18:50.454Z,11.77
2024-02-13T00:21:19.162Z,14.10
2024-02-13T00:23:45.996Z,12.30
2024-02-13T00:26:12.746Z,15.00
2024-02-13T00:28:40.846Z,13.02
2024-02-13T00:31:10.784Z,14.85
2024-02-13T00:33:39.725Z,15.80
2024-02-13T00:36:12.986Z,17.88
2024-02-13T00:38:41.595Z,12.75
2024-02-13T00:41:08.257Z,14.13
2024-02-13T00:43:36.540Z,13.68
2024-02-13T00:46:03.473Z,18.67
2024-02-13T00:48:33.693Z,18.13
2024-02-13T00:51:00.483Z,18.60
2024-02-13T00:53:27.245Z,20.90
2024-02-13T00:55:55.030Z,20.92
2024-02-13T01:07:05.424Z,23.27
2024-02-13T01:09:35.677Z,19.58
2024-02-13T01:12:07.572Z,15.57
2024-02-13T01:14:34.327Z,17.25
2024-02-13T01:17:03.830Z,13.52
2024-02-13T01:19:31.944Z,15.95
2024-02-13T01:21:58.746Z,15.57
2024-02-13T01:24:28.144Z,19.20
2024-02-13T01:26:59.243Z,15.20
2024-02-13T01:29:26.323Z,17.35
2024-02-13T01:31:53.201Z,16.77
2024-02-13T01:34:19.974Z,20.73
2024-02-13T01:36:46.914Z,20.42
2024-02-13T01:39:13.522Z,18.45
2024-02-13T01:41:40.230Z,13.55
2024-02-13T01:44:06.872Z,19.02
2024-02-13T01:46:35.219Z,21.75
2024-02-13T01:49:02.437Z,16.90
2024-02-13T01:51:31.916Z,16.70
2024-02-13T01:54:01.136Z,18.40
2024-02-13T01:56:30.391Z,21.70
2024-02-13T01:58:58.248Z,20.85
2024-02-13T02:01:26.206Z,20.98
2024-02-13T02:06:22.770Z,21.73
2024-02-13T02:08:49.666Z,21.40
2024-02-13T02:11:16.773Z,21.25
2024-02-13T02:13:44.345Z,22.13
2024-02-13T02:16:11.492Z,25.88
2024-02-13T02:18:38.439Z,20.63
2024-02-13T02:21:05.890Z,19.77
2024-02-13T02:23:36.284Z,17.20
2024-02-13T02:26:04.429Z,20.63
2024-02-13T02:30:57.795Z,20.50
2024-02-13T02:33:24.925Z,16.63
2024-02-13T02:35:52.737Z,16.13
2024-02-13T02:40:46.163Z,21.92
2024-02-13T02:43:13.144Z,18.92
2024-02-13T02:45:39.847Z,20.97
2024-02-13T02:48:07.544Z,24.85
2024-02-13T02:50:36.118Z,17.85
2024-02-13T02:53:02.851Z,19.35
2024-02-13T02:55:30.570Z,21.33
2024-02-13T02:57:58.115Z,23.80
2024-02-13T03:00:24.828Z,17.27
2024-02-13T03:02:53.598Z,19.55
2024-02-13T03:05:22.324Z,23.52
2024-02-13T03:07:50.658Z,20.27
2024-02-13T03:10:17.344Z,20.85
2024-02-13T03:12:45.560Z,22.77
2024-02-13T03:15:13.847Z,17.10
2024-02-13T03:17:41.331Z,23.70
2024-02-13T03:20:12.660Z,20.67
2024-02-13T03:22:51.210Z,21.17
2024-02-13T03:25:17.832Z,19.88
2024-02-13T03:27:45.116Z,20.77
2024-02-13T03:30:12.664Z,22.65
2024-02-13T03:32:42.221Z,22.48
2024-02-13T03:35:10.862Z,20.92
2024-02-13T03:37:46.375Z,20.13
2024-02-13T03:40:17.394Z,21.58
2024-02-13T03:42:46.020Z,22.95
2024-02-13T03:45:13.179Z,23.35
2024-02-13T03:47:41.402Z,21.97
2024-02-13T03:50:11.020Z,24.60
2024-02-13T03:52:41.045Z,25.50
2024-02-13T03:55:10.881Z,23.17
2024-02-13T03:57:37.721Z,23.75
2024-02-13T04:00:09.141Z,20.35
2024-02-13T04:02:36.667Z,24.35
2024-02-13T04:05:04.169Z,22.13
2024-02-13T04:07:30.847Z,25.75
2024-02-13T04:09:57.917Z,21.38
2024-02-13T04:12:25.728Z,19.00
2024-02-13T04:17:19.753Z,20.60
2024-02-13T04:19:48.083Z,16.83
2024-02-13T04:22:15.947Z,23.48
2024-02-13T04:24:45.158Z,21.60
2024-02-13T04:27:11.973Z,22.23
2024-02-13T04:29:42.405Z,19.50
2024-02-13T04:32:09.150Z,20.35
2024-02-13T04:34:38.280Z,23.17
2024-02-13T04:37:05.018Z,28.70
2024-02-13T04:39:34.258Z,23.77
2024-02-13T04:42:02.008Z,19.50
2024-02-13T04:44:37.487Z,21.05
2024-02-13T04:47:06.277Z,20.02
2024-02-13T04:49:33.791Z,22.30
2024-02-13T04:52:02.481Z,34.60
2024-02-13T04:56:57.304Z,23.88
2024-02-13T04:59:24.507Z,20.65
2024-02-13T05:01:53.349Z,27.35
2024-02-13T05:04:20.495Z,18.58
2024-02-13T05:07:05.765Z,22.80
2024-02-13T05:09:32.977Z,26.73
2024-02-13T05:12:02.188Z,23.53
2024-02-13T05:14:32.052Z,25.38
2024-02-13T05:17:02.709Z,28.80
2024-02-13T05:19:36.859Z,19.33
2024-02-13T05:22:03.661Z,23.20
2024-02-13T05:24:31.714Z,23.75
2024-02-13T05:29:29.531Z,20.73
2024-02-13T05:31:57.716Z,20.55
2024-02-13T05:34:24.446Z,21.05
2024-02-13T05:36:51.223Z,23.90
2024-02-13T05:39:18.682Z,23.15
2024-02-13T05:41:45.443Z,21.65
2024-02-13T05:46:52.580Z,38.00
2024-02-13T05:49:19.357Z,27.30
2024-02-13T05:51:56.178Z,22.05
2024-02-13T05:54:23.464Z,21.85
2024-02-13T05:56:50.538Z,24.77
2024-02-13T05:59:20.669Z,24.13
2024-02-13T06:01:50.788Z,42.22
2024-02-13T06:04:18.941Z,21.02
2024-02-13T06:06:48.527Z,25.10
2024-02-13T06:09:22.612Z,22.83
2024-02-13T06:11:52.036Z,21.58
2024-02-13T06:14:20.312Z,21.63
2024-02-13T06:16:50.335Z,27.05
2024-02-13T06:19:20.347Z,61.85
2024-02-13T06:21:47.038Z,21.33
2024-02-13T06:24:13.808Z,18.52
2024-02-13T06:26:42.153Z,18.42
2024-02-13T06:29:10.088Z,19.95
2024-02-13T06:31:42.435Z,18.65
2024-02-13T06:34:10.994Z,19.55
2024-02-13T06:36:40.870Z,18.13
2024-02-13T06:39:09.724Z,18.65
2024-02-13T06:41:39.441Z,21.75
2024-02-13T06:44:14.845Z,15.98
2024-02-13T06:46:41.972Z,16.77
2024-02-13T06:49:08.949Z,19.13
2024-02-13T06:51:41.756Z,16.57
2024-02-13T06:54:11.500Z,16.20
2024-02-13T06:59:20.855Z,21.20
2024-02-13T07:01:47.565Z,18.92
2024-02-13T07:04:22.578Z,27.07
2024-02-13T07:06:59.426Z,19.25
2024-02-13T07:09:36.918Z,15.48
2024-02-13T07:12:06.226Z,16.23
2024-02-13T07:17:15.437Z,14.98
2024-02-13T07:22:22.845Z,15.45
2024-02-13T07:27:34.380Z,16.27
2024-02-13T07:33:43.003Z,14.48
2024-02-13T07:38:52.995Z,13.35
2024-02-13T07:44:01.716Z,10.88
2024-02-13T07:46:28.513Z,18.25
2024-02-13T07:49:00.384Z,14.32
2024-02-13T07:51:28.800Z,10.48
2024-02-13T07:53:57.632Z,9.90
2024-02-13T07:56:31.187Z,11.10
2024-02-13T07:59:01.110Z,10.20
2024-02-13T08:04:11.867Z,8.00
2024-02-13T08:09:21.787Z,8.48
2024-02-13T08:11:53.648Z,9.00
2024-02-13T08:14:21.910Z,6.63
2024-02-13T08:16:50.506Z,7.32
2024-02-13T08:19:17.225Z,8.35
2024-02-13T08:21:44.026Z,5.72
2024-02-13T08:24:11.917Z,7.35
2024-02-13T08:29:06.239Z,6.63
2024-02-13T08:31:33.028Z,8.00
2024-02-13T08:34:03.464Z,12.27
2024-02-13T08:36:33.547Z,7.10
2024-02-13T08:39:00.297Z,7.00
2024-02-13T08:41:31.876Z,9.13
2024-02-13T08:43:59.645Z,7.70
2024-02-13T08:46:26.712Z,7.18
2024-02-13T08:48:54.827Z,12.30
2024-02-13T08:51:28.224Z,5.53
2024-02-13T08:53:55.533Z,9.93
2024-02-13T08:56:27.916Z,4.95
2024-02-13T08:58:55.660Z,4.57
2024-02-13T09:01:24.255Z,7.72
2024-02-13T09:03:51.599Z,7.60
2024-02-13T09:06:18.990Z,9.38
2024-02-13T09:11:28.375Z,6.03
2024-02-13T09:16:39.894Z,7.00
2024-02-13T09:21:54.881Z,6.82
2024-02-13T09:27:08.542Z,4.50
2024-02-13T09:29:35.621Z,4.30
2024-02-13T09:32:05.854Z,6.37
2024-02-13T09:34:34.882Z,6.82
2024-02-13T09:37:01.862Z,2.92
2024-02-13T09:42:14.804Z,7.00
2024-02-13T09:44:48.965Z,4.32
2024-02-13T09:47:21.673Z,5.78
2024-02-13T09:52:30.990Z,5.47
2024-02-13T09:57:42.157Z,6.28
2024-02-13T10:02:55.823Z,5.93
2024-02-13T10:05:30.064Z,3.83
2024-02-13T10:07:58.536Z,7.57
2024-02-13T10:10:26.551Z,5.53
2024-02-13T10:12:58.042Z,1.90
2024-02-13T10:15:28.026Z,4.82
2024-02-13T10:17:55.805Z,7.68
2024-02-13T10:22:51.319Z,4.87
2024-02-13T10:25:30.812Z,5.93
2024-02-13T10:27:59.142Z,3.13
2024-02-13T10:30:28.864Z,2.58
2024-02-13T10:33:01.724Z,2.42
2024-02-13T10:35:32.082Z,3.25
2024-02-13T10:38:06.853Z,4.60
2024-02-13T10:40:37.804Z,3.03
2024-02-13T10:45:53.693Z,3.53
2024-02-13T10:48:29.415Z,4.82
2024-02-13T10:51:00.182Z,4.18
2024-02-13T10:53:28.715Z,5.43
2024-02-13T10:55:55.720Z,6.05
2024-02-13T11:01:16.712Z,4.72
2024-02-13T11:03:56.373Z,5.18
2024-02-13T11:06:24.758Z,5.38
2024-02-13T11:11:38.504Z,8.50
2024-02-13T11:14:22.238Z,5.95
2024-02-13T11:17:04.573Z,5.82
2024-02-13T11:19:45.991Z,4.97
2024-02-13T11:22:16.568Z,3.58
2024-02-13T11:24:52.608Z,5.03
2024-02-13T11:27:30.008Z,7.00
2024-02-13T11:30:00.095Z,3.20
2024-02-13T11:32:32.278Z,3.47
2024-02-13T11:35:00.832Z,2.53
2024-02-13T11:37:32.705Z,3.05
2024-02-13T11:39:59.858Z,4.15
2024-02-13T11:42:35.642Z,3.97
2024-02-13T11:45:03.646Z,3.70
2024-02-13T11:47:32.435Z,2.38
2024-02-13T11:50:01.966Z,3.60
2024-02-13T11:52:29.022Z,3.20
2024-02-13T11:54:56.065Z,4.80
2024-02-13T11:57:27.162Z,4.17
2024-02-13T12:00:06.841Z,4.63
2024-02-13T12:02:36.782Z,2.85
2024-02-13T12:05:12.329Z,3.55
2024-02-13T12:07:43.007Z,3.90
2024-02-13T12:10:16.796Z,1.60
2024-02-13T12:12:43.917Z,2.50
2024-02-13T12:18:02.946Z,5.20
2024-02-13T12:20:31.889Z,2.15
2024-02-13T12:23:07.357Z,3.75
2024-02-13T12:28:23.414Z,3.72
2024-02-13T12:30:51.916Z,3.38
2024-02-13T12:33:22.366Z,2.90
2024-02-13T12:36:03.167Z,2.13
2024-02-13T12:38:31.737Z,1.75
2024-02-13T12:41:00.186Z,3.35
2024-02-13T12:43:29.807Z,1.60
2024-02-13T12:46:04.135Z,4.93
2024-02-13T12:48:38.255Z,2.55
2024-02-13T12:51:11.849Z,3.85
2024-02-13T12:53:44.642Z,1.95
2024-02-13T12:56:13.403Z,1.00
2024-02-13T12:58:41.872Z,4.85
2024-02-13T13:01:11.345Z,1.23
2024-02-13T13:03:38.750Z,2.92
2024-02-13T13:06:18.446Z,3.20
2024-02-13T13:11:35.891Z,2.92
2024-02-13T13:14:04.549Z,1.30
2024-02-13T13:19:15.199Z,1.80
2024-02-13T13:24:25.061Z,1.55
2024-02-13T13:29:36.646Z,2.30
2024-02-13T13:34:49.944Z,2.97
2024-02-13T13:37:21.534Z,1.98
2024-02-13T13:39:48.628Z,2.53
2024-02-13T13:42:19.075Z,4.88
2024-02-13T13:44:55.578Z,0.68
2024-02-13T13:47:22.309Z,2.30
2024-02-13T13:49:49.156Z,0.45
2024-02-13T13:52:23.300Z,0.85
2024-02-13T13:54:51.075Z,2.42
2024-02-13T13:59:53.282Z,0.82
2024-02-13T14:02:22.412Z,1.05
2024-02-13T14:07:31.355Z,1.40
2024-02-13T14:12:41.988Z,3.38
2024-02-13T14:17:50.604Z,1.65
2024-02-13T14:23:04.776Z,2.45
2024-02-13T14:28:13.793Z,3.85
2024-02-13T14:33:25.790Z,2.92
2024-02-13T14:38:35.068Z,2.90
2024-02-13T14:43:42.635Z,8.13
2024-02-13T14:46:09.535Z,3.70
2024-02-13T14:51:21.006Z,3.20
2024-02-13T14:53:50.412Z,9.15
2024-02-13T14:56:17.414Z,2.67
2024-02-13T14:58:46.776Z,2.28
2024-02-13T15:01:14.792Z,5.30
2024-02-13T15:06:24.820Z,1.27
2024-02-13T15:08:53.026Z,2.10
2024-02-13T15:11:25.913Z,3.67
2024-02-13T15:13:54.879Z,4.57
2024-02-13T15:19:05.721Z,3.55
2024-02-13T15:24:16.133Z,5.47
2024-02-13T15:29:26.756Z,2.65
2024-02-13T15:34:42.494Z,3.42
2024-02-13T15:40:10.184Z,3.15
2024-02-13T15:42:56.802Z,1.80
2024-02-13T15:45:44.763Z,1.75
2024-02-13T15:48:12.177Z,1.27
2024-02-13T15:50:40.536Z,3.35
2024-02-13T15:53:09.752Z,2.78
2024-02-13T15:58:17.077Z,8.80
2024-02-13T16:00:43.860Z,2.83
2024-02-13T16:05:51.450Z,4.88
2024-02-13T16:08:18.225Z,3.72
2024-02-13T16:10:49.358Z,2.60
2024-02-13T16:13:16.007Z,6.07
2024-02-13T16:15:42.676Z,1.83
2024-02-13T16:20:52.742Z,2.33
2024-02-13T16:25:59.865Z,3.65
2024-02-13T16:28:26.536Z,11.85
2024-02-13T16:30:53.293Z,7.05
2024-02-13T16:33:20.087Z,4.32
2024-02-13T16:35:46.925Z,4.72
2024-02-13T16:38:20.971Z,2.90
2024-02-13T16:40:47.787Z,2.33
2024-02-13T16:43:14.437Z,3.55
2024-02-13T16:45:48.690Z,1.10
2024-02-13T16:48:18.228Z,2.85
2024-02-13T16:53:28.554Z,19.67
2024-02-13T16:58:35.562Z,3.15
2024-02-13T17:01:02.970Z,3.33
2024-02-13T17:06:10.762Z,3.05
2024-02-13T17:11:20.911Z,4.93
2024-02-13T17:13:48.438Z,6.05
2024-02-13T17:18:58.853Z,5.22
2024-02-13T17:21:25.600Z,4.27
2024-02-13T17:23:57.636Z,7.50
2024-02-13T17:26:24.761Z,4.10
2024-02-13T17:28:51.880Z,3.80
2024-02-13T17:31:26.625Z,4.43
2024-02-13T17:33:53.483Z,4.00
2024-02-13T17:36:20.557Z,5.80
2024-02-13T17:41:30.255Z,4.47
2024-02-13T17:46:40.796Z,4.18
2024-02-13T17:49:08.015Z,4.65
2024-02-13T17:51:37.017Z,66.65
2024-02-13T17:54:12.921Z,4.93
2024-02-13T17:56:39.702Z,4.18
2024-02-13T17:59:07.329Z,3.75
2024-02-13T18:04:17.203Z,6.80
2024-02-13T18:09:24.279Z,5.60
2024-02-13T18:12:02.789Z,7.47
2024-02-13T18:14:29.834Z,8.20
2024-02-13T18:16:56.698Z,7.27
2024-02-13T18:19:30.836Z,10.82
2024-02-13T18:21:58.894Z,4.72
2024-02-13T18:24:26.634Z,14.63
2024-02-13T18:29:34.868Z,4.35
2024-02-13T18:34:46.770Z,6.63
2024-02-13T18:37:21.829Z,5.20
2024-02-13T18:39:48.473Z,4.25
2024-02-13T18:42:15.142Z,5.43
2024-02-13T18:47:24.589Z,6.63
2024-02-13T18:49:51.423Z,10.85
2024-02-13T18:52:18.292Z,7.68
2024-02-13T19:01:21.439Z,8.75
2024-02-13T19:03:48.647Z,6.68
2024-02-13T19:06:15.582Z,6.00
2024-02-13T19:08:46.272Z,3.00
2024-02-13T19:11:14.967Z,6.30
2024-02-13T19:13:44.873Z,3.78
2024-02-13T19:16:15.842Z,5.57
2024-02-13T19:18:42.880Z,5.60
2024-02-13T19:21:10.754Z,5.83
2024-02-13T19:26:17.717Z,4.68
2024-02-13T19:31:25.062Z,3.97
2024-02-13T19:33:52.326Z,8.60
2024-02-13T19:36:20.243Z,8.47
2024-02-13T19:38:46.972Z,5.35
2024-02-13T19:41:14.375Z,8.13
2024-02-13T19:46:23.898Z,6.90
2024-02-13T19:48:52.376Z,5.82
2024-02-13T19:51:19.427Z,3.92
2024-02-13T19:53:46.942Z,8.00
2024-02-13T19:56:18.967Z,6.25
2024-02-13T19:58:45.792Z,11.65
2024-02-13T20:01:12.822Z,7.32
2024-02-13T20:06:22.158Z,4.10
2024-02-13T20:11:31.175Z,4.45
2024-02-13T20:16:39.507Z,3.83
2024-02-13T20:19:06.540Z,3.80
2024-02-13T20:21:41.236Z,8.93
2024-02-13T20:24:08.386Z,5.32
2024-02-13T20:26:35.135Z,6.23
2024-02-13T20:31:44.477Z,5.75
2024-02-13T20:34:12.362Z,8.00
2024-02-13T20:36:48.341Z,6.50
2024-02-13T20:39:15.162Z,8.35
2024-02-13T20:41:44.452Z,6.70
2024-02-13T20:44:21.790Z,6.65
2024-02-13T20:46:48.405Z,4.72
2024-02-13T20:51:56.371Z,8.13
2024-02-13T20:54:23.037Z,8.02
2024-02-13T20:56:55.275Z,8.48
2024-02-13T20:59:23.377Z,6.85
2024-02-13T21:01:50.340Z,6.72
2024-02-13T21:04:17.133Z,6.03
2024-02-13T21:09:24.393Z,6.20
2024-02-13T21:14:31.433Z,6.32
2024-02-13T21:16:58.174Z,6.93
2024-02-13T21:22:24.254Z,4.93
2024-02-13T21:24:51.466Z,5.85
2024-02-13T21:27:18.419Z,4.70
2024-02-13T21:29:51.719Z,3.97
2024-02-13T21:32:22.014Z,6.22
2024-02-13T21:34:48.946Z,8.07
2024-02-13T21:37:23.444Z,4.97
2024-02-13T21:39:52.604Z,7.35
2024-02-13T21:42:27.619Z,7.85
2024-02-13T21:44:54.307Z,8.68
2024-02-13T21:47:21.103Z,7.03
2024-02-13T21:49:47.808Z,5.00
2024-02-13T21:52:14.783Z,6.55
2024-02-13T21:54:41.462Z,9.48
2024-02-13T21:57:08.239Z,5.45
2024-02-13T21:59:35.082Z,6.55
2024-02-13T22:02:01.814Z,6.05
2024-02-13T22:04:32.051Z,7.65
2024-02-13T22:07:02.610Z,6.03
2024-02-13T22:09:29.539Z,6.93
2024-02-13T22:11:56.580Z,4.97
2024-02-13T22:14:23.955Z,3.83
2024-02-13T22:16:52.435Z,4.28
2024-02-13T22:19:19.454Z,5.32
2024-02-13T22:21:47.314Z,5.33
2024-02-13T22:26:41.023Z,7.23
2024-02-13T22:29:09.942Z,6.18
2024-02-13T22:31:39.592Z,5.18
2024-02-13T22:34:09.299Z,9.82
2024-02-13T22:36:36.264Z,5.07
2024-02-13T22:39:03.144Z,5.45
2024-02-13T22:41:30.033Z,6.33
2024-02-13T22:43:56.750Z,4.05
2024-02-13T22:46:26.792Z,5.63
2024-02-13T22:48:53.675Z,5.43
2024-02-13T22:51:20.727Z,6.43
2024-02-13T22:53:47.537Z,5.97
2024-02-13T22:56:14.530Z,5.57
2024-02-13T22:58:41.260Z,4.60
2024-02-13T23:01:07.984Z,5.75
2024-02-13T23:03:36.667Z,4.35
2024-02-13T23:06:05.755Z,5.45
2024-02-13T23:08:32.833Z,4.68
2024-02-13T23:11:12.309Z,5.70
2024-02-13T23:13:44.350Z,3.58
2024-02-13T23:16:14.508Z,6.32
2024-02-13T23:18:41.952Z,4.93
2024-02-13T23:21:08.901Z,6.68
2024-02-13T23:23:35.782Z,4.55
2024-02-13T23:26:02.922Z,4.82
2024-02-13T23:28:39.085Z,4.60
2024-02-13T23:31:13.341Z,3.60
2024-02-13T23:33:43.241Z,4.38
2024-02-13T23:36:10.550Z,5.63
2024-02-13T23:38:38.786Z,4.63
2024-02-13T23:41:06.935Z,6.20
2024-02-13T23:43:33.626Z,5.78
2024-02-13T23:46:01.867Z,4.07
2024-02-13T23:48:29.801Z,4.43
2024-02-13T23:50:57.563Z,3.67
2024-02-13T23:53:24.904Z,7.13
2024-02-13T23:55:51.627Z,6.60
2024-02-13T23:58:18.432Z,5.05
